sensor_id;sensor_type;location;lat;lon;timestamp;P1;durP1;ratioP1;P2;durP2;ratioP2
23608;SDS011;11982;50.810;4.442;2023-07-20T00:02:20;7.78;;;3.80;;
23608;SDS011;11982;50.810;4.442;2023-07-20T00:04:46;8.65;;;3.90;;
23608;SDS011;11982;50.810;4.442;2023-07-20T00:07:12;14.20;;;4.10;;
23608;SDS011;11982;50.810;4.442;2023-07-20T00:09:37;7.68;;;3.45;;
23608;SDS011;11982;50.810;4.442;2023-07-20T00:12:03;6.80;;;3.53;;
23608;SDS011;11982;50.810;4.442;2023-07-20T00:14:29;11.15;;;3.70;;
23608;SDS011;11982;50.810;4.442;2023-07-20T00:16:55;10.98;;;4.13;;
23608;SDS011;11982;50.810;4.442;2023-07-20T00:19:22;9.50;;;3.75;;
23608;SDS011;11982;50.810;4.442;2023-07-20T00:21:52;16.17;;;4.57;;
23608;SDS011;11982;50.810;4.442;2023-07-20T00:24:19;11.05;;;4.10;;
23608;SDS011;11982;50.810;4.442;2023-07-20T00:26:45;6.97;;;4.13;;
23608;SDS011;11982;50.810;4.442;2023-07-20T00:29:11;15.98;;;4.32;;
23608;SDS011;11982;50.810;4.442;2023-07-20T00:31:37;8.75;;;3.85;;
23608;SDS011;11982;50.810;4.442;2023-07-20T00:34:03;11.80;;;3.90;;
23608;SDS011;11982;50.810;4.442;2023-07-20T00:36:29;15.40;;;4.05;;
23608;SDS011;11982;50.810;4.442;2023-07-20T00:38:55;11.20;;;3.67;;
23608;SDS011;11982;50.810;4.442;2023-07-20T00:41:21;13.18;;;3.92;;
23608;SDS011;11982;50.810;4.442;2023-07-20T00:43:46;7.05;;;4.25;;
23608;SDS011;11982;50.810;4.442;2023-07-20T00:46:12;12.27;;;4.28;;
23608;SDS011;11982;50.810;4.442;2023-07-20T00:48:39;12.25;;;4.07;;
23608;SDS011;11982;50.810;4.442;2023-07-20T00:51:06;16.10;;;4.03;;
23608;SDS011;11982;50.810;4.442;2023-07-20T00:53:32;15.70;;;4.82;;
23608;SDS011;11982;50.810;4.442;2023-07-20T00:55:58;11.43;;;4.13;;
23608;SDS011;11982;50.810;4.442;2023-07-20T00:58:23;9.18;;;4.22;;
23608;SDS011;11982;50.810;4.442;2023-07-20T01:00:49;10.68;;;4.40;;
23608;SDS011;11982;50.810;4.442;2023-07-20T01:03:15;10.30;;;4.10;;
23608;SDS011;11982;50.810;4.442;2023-07-20T01:08:32;13.60;;;5.00;;
23608;SDS011;11982;50.810;4.442;2023-07-20T01:11:06;13.45;;;4.53;;
23608;SDS011;11982;50.810;4.442;2023-07-20T01:13:40;10.82;;;5.20;;
23608;SDS011;11982;50.810;4.442;2023-07-20T01:16:07;10.65;;;4.60;;
23608;SDS011;11982;50.810;4.442;2023-07-20T01:18:33;13.85;;;5.03;;
23608;SDS011;11982;50.810;4.442;2023-07-20T01:20:59;15.20;;;4.60;;
23608;SDS011;11982;50.810;4.442;2023-07-20T01:31:36;14.70;;;4.78;;
23608;SDS011;11982;50.810;4.442;2023-07-20T01:34:03;12.40;;;5.25;;
23608;SDS011;11982;50.810;4.442;2023-07-20T01:36:33;14.50;;;4.95;;
23608;SDS011;11982;50.810;4.442;2023-07-20T01:39:01;9.45;;;4.65;;
23608;SDS011;11982;50.810;4.442;2023-07-20T01:41:27;13.82;;;6.05;;
23608;SDS011;11982;50.810;4.442;2023-07-20T01:43:53;19.42;;;6.05;;
23608;SDS011;11982;50.810;4.442;2023-07-20T01:46:24;16.90;;;5.97;;
23608;SDS011;11982;50.810;4.442;2023-07-20T01:48:49;12.43;;;6.15;;
23608;SDS011;11982;50.810;4.442;2023-07-20T01:51:15;16.35;;;5.82;;
23608;SDS011;11982;50.810;4.442;2023-07-20T01:53:43;16.48;;;5.70;;
23608;SDS011;11982;50.810;4.442;2023-07-20T01:56:08;11.25;;;5.63;;
23608;SDS011;11982;50.810;4.442;2023-07-20T01:58:34;16.08;;;5.88;;
23608;SDS011;11982;50.810;4.442;2023-07-20T02:01:00;16.48;;;6.35;;
23608;SDS011;11982;50.810;4.442;2023-07-20T02:03:27;15.82;;;6.25;;
23608;SDS011;11982;50.810;4.442;2023-07-20T02:05:52;15.30;;;6.40;;
23608;SDS011;11982;50.810;4.442;2023-07-20T02:08:18;14.10;;;6.82;;
23608;SDS011;11982;50.810;4.442;2023-07-20T02:10:47;20.50;;;7.90;;
23608;SDS011;11982;50.810;4.442;2023-07-20T02:13:13;14.70;;;6.90;;
23608;SDS011;11982;50.810;4.442;2023-07-20T02:15:39;24.50;;;7.28;;
23608;SDS011;11982;50.810;4.442;2023-07-20T02:18:05;23.80;;;7.13;;
23608;SDS011;11982;50.810;4.442;2023-07-20T02:20:31;17.65;;;7.05;;
23608;SDS011;11982;50.810;4.442;2023-07-20T02:22:56;15.88;;;7.32;;
23608;SDS011;11982;50.810;4.442;2023-07-20T02:25:22;21.95;;;7.47;;
23608;SDS011;11982;50.810;4.442;2023-07-20T02:27:48;18.08;;;8.30;;
23608;SDS011;11982;50.810;4.442;2023-07-20T02:30:13;15.05;;;7.28;;
23608;SDS011;11982;50.810;4.442;2023-07-20T02:32:41;16.75;;;7.68;;
23608;SDS011;11982;50.810;4.442;2023-07-20T02:35:11;20.10;;;8.73;;
23608;SDS011;11982;50.810;4.442;2023-07-20T02:37:37;15.80;;;7.97;;
23608;SDS011;11982;50.810;4.442;2023-07-20T02:40:03;23.05;;;8.55;;
23608;SDS011;11982;50.810;4.442;2023-07-20T02:42:29;20.25;;;8.77;;
23608;SDS011;11982;50.810;4.442;2023-07-20T02:44:55;25.25;;;8.90;;
23608;SDS011;11982;50.810;4.442;2023-07-20T02:47:21;25.13;;;9.02;;
23608;SDS011;11982;50.810;4.442;2023-07-20T02:49:47;17.70;;;8.55;;
23608;SDS011;11982;50.810;4.442;2023-07-20T02:52:12;22.95;;;9.30;;
23608;SDS011;11982;50.810;4.442;2023-07-20T02:54:38;26.13;;;11.45;;
23608;SDS011;11982;50.810;4.442;2023-07-20T02:57:04;22.73;;;10.73;;
23608;SDS011;11982;50.810;4.442;2023-07-20T02:59:30;27.77;;;11.60;;
23608;SDS011;11982;50.810;4.442;2023-07-20T03:01:55;28.35;;;13.70;;
23608;SDS011;11982;50.810;4.442;2023-07-20T03:04:22;28.92;;;12.63;;
23608;SDS011;11982;50.810;4.442;2023-07-20T03:06:50;25.92;;;12.38;;
23608;SDS011;11982;50.810;4.442;2023-07-20T03:09:16;24.73;;;11.90;;
23608;SDS011;11982;50.810;4.442;2023-07-20T03:11:42;29.63;;;13.00;;
23608;SDS011;11982;50.810;4.442;2023-07-20T03:14:07;23.30;;;12.07;;
23608;SDS011;11982;50.810;4.442;2023-07-20T03:16:33;27.33;;;13.38;;
23608;SDS011;11982;50.810;4.442;2023-07-20T03:18:59;29.83;;;13.02;;
23608;SDS011;11982;50.810;4.442;2023-07-20T03:21:25;29.85;;;13.07;;
23608;SDS011;11982;50.810;4.442;2023-07-20T03:23:51;26.70;;;13.63;;
23608;SDS011;11982;50.810;4.442;2023-07-20T03:26:17;27.33;;;12.88;;
23608;SDS011;11982;50.810;4.442;2023-07-20T03:28:43;29.88;;;14.10;;
23608;SDS011;11982;50.810;4.442;2023-07-20T03:31:08;26.92;;;13.10;;
23608;SDS011;11982;50.810;4.442;2023-07-20T03:33:34;27.75;;;13.02;;
23608;SDS011;11982;50.810;4.442;2023-07-20T03:36:00;23.15;;;12.98;;
23608;SDS011;11982;50.810;4.442;2023-07-20T03:38:26;31.75;;;13.48;;
23608;SDS011;11982;50.810;4.442;2023-07-20T03:40:56;25.90;;;13.25;;
23608;SDS011;11982;50.810;4.442;2023-07-20T03:43:23;30.08;;;12.35;;
23608;SDS011;11982;50.810;4.442;2023-07-20T03:45:50;26.17;;;13.00;;
23608;SDS011;11982;50.810;4.442;2023-07-20T03:48:17;23.52;;;12.50;;
23608;SDS011;11982;50.810;4.442;2023-07-20T03:50:45;28.20;;;12.38;;
23608;SDS011;11982;50.810;4.442;2023-07-20T03:53:12;20.08;;;12.82;;
23608;SDS011;11982;50.810;4.442;2023-07-20T03:55:38;28.58;;;12.23;;
23608;SDS011;11982;50.810;4.442;2023-07-20T03:58:05;27.35;;;12.52;;
23608;SDS011;11982;50.810;4.442;2023-07-20T04:00:31;23.30;;;11.85;;
23608;SDS011;11982;50.810;4.442;2023-07-20T04:02:57;26.50;;;13.38;;
23608;SDS011;11982;50.810;4.442;2023-07-20T04:05:24;27.15;;;12.20;;
23608;SDS011;11982;50.810;4.442;2023-07-20T04:07:50;30.10;;;13.45;;
23608;SDS011;11982;50.810;4.442;2023-07-20T04:10:16;28.83;;;13.52;;
23608;SDS011;11982;50.810;4.442;2023-07-20T04:12:42;28.27;;;13.57;;
23608;SDS011;11982;50.810;4.442;2023-07-20T04:15:09;30.33;;;13.77;;
23608;SDS011;11982;50.810;4.442;2023-07-20T04:17:35;31.48;;;15.48;;
23608;SDS011;11982;50.810;4.442;2023-07-20T04:20:00;28.73;;;13.15;;
23608;SDS011;11982;50.810;4.442;2023-07-20T04:22:26;30.88;;;14.13;;
23608;SDS011;11982;50.810;4.442;2023-07-20T04:24:52;35.40;;;15.15;;
23608;SDS011;11982;50.810;4.442;2023-07-20T04:27:17;33.55;;;14.52;;
23608;SDS011;11982;50.810;4.442;2023-07-20T04:29:43;32.53;;;15.45;;
23608;SDS011;11982;50.810;4.442;2023-07-20T04:32:09;36.47;;;14.18;;
23608;SDS011;11982;50.810;4.442;2023-07-20T04:34:34;33.55;;;15.18;;
23608;SDS011;11982;50.810;4.442;2023-07-20T04:37:02;28.77;;;15.15;;
23608;SDS011;11982;50.810;4.442;2023-07-20T04:39:29;32.78;;;15.27;;
23608;SDS011;11982;50.810;4.442;2023-07-20T04:41:55;34.72;;;15.02;;
23608;SDS011;11982;50.810;4.442;2023-07-20T04:44:21;28.08;;;13.88;;
23608;SDS011;11982;50.810;4.442;2023-07-20T04:46:47;29.77;;;15.63;;
23608;SDS011;11982;50.810;4.442;2023-07-20T04:49:12;30.58;;;15.80;;
23608;SDS011;11982;50.810;4.442;2023-07-20T04:51:38;30.30;;;14.70;;
23608;SDS011;11982;50.810;4.442;2023-07-20T04:54:04;28.65;;;16.33;;
23608;SDS011;11982;50.810;4.442;2023-07-20T04:56:30;32.58;;;15.90;;
23608;SDS011;11982;50.810;4.442;2023-07-20T04:58:55;33.17;;;15.68;;
23608;SDS011;11982;50.810;4.442;2023-07-20T05:01:22;37.35;;;16.50;;
23608;SDS011;11982;50.810;4.442;2023-07-20T05:03:48;34.33;;;17.42;;
23608;SDS011;11982;50.810;4.442;2023-07-20T05:06:14;36.80;;;16.58;;
23608;SDS011;11982;50.810;4.442;2023-07-20T05:08:40;29.20;;;15.73;;
23608;SDS011;11982;50.810;4.442;2023-07-20T05:11:06;28.15;;;15.20;;
23608;SDS011;11982;50.810;4.442;2023-07-20T05:13:32;32.50;;;16.48;;
23608;SDS011;11982;50.810;4.442;2023-07-20T05:15:58;33.35;;;17.23;;
23608;SDS011;11982;50.810;4.442;2023-07-20T05:18:24;32.20;;;16.58;;
23608;SDS011;11982;50.810;4.442;2023-07-20T05:20:50;29.75;;;17.33;;
23608;SDS011;11982;50.810;4.442;2023-07-20T05:23:19;33.58;;;17.15;;
23608;SDS011;11982;50.810;4.442;2023-07-20T05:25:45;37.33;;;16.95;;
23608;SDS011;11982;50.810;4.442;2023-07-20T05:28:11;34.60;;;16.67;;
23608;SDS011;11982;50.810;4.442;2023-07-20T05:30:37;29.50;;;16.88;;
23608;SDS011;11982;50.810;4.442;2023-07-20T05:33:02;35.50;;;17.35;;
23608;SDS011;11982;50.810;4.442;2023-07-20T05:35:28;35.30;;;17.50;;
23608;SDS011;11982;50.810;4.442;2023-07-20T05:37:54;35.88;;;17.42;;
23608;SDS011;11982;50.810;4.442;2023-07-20T05:40:20;33.85;;;16.95;;
23608;SDS011;11982;50.810;4.442;2023-07-20T05:42:46;40.05;;;17.75;;
23608;SDS011;11982;50.810;4.442;2023-07-20T05:45:14;31.13;;;16.35;;
23608;SDS011;11982;50.810;4.442;2023-07-20T05:47:41;28.42;;;15.98;;
23608;SDS011;11982;50.810;4.442;2023-07-20T05:50:06;24.75;;;14.88;;
23608;SDS011;11982;50.810;4.442;2023-07-20T05:52:32;25.85;;;14.05;;
23608;SDS011;11982;50.810;4.442;2023-07-20T05:54:58;24.10;;;14.65;;
23608;SDS011;11982;50.810;4.442;2023-07-20T05:57:24;23.90;;;14.85;;
23608;SDS011;11982;50.810;4.442;2023-07-20T05:59:49;27.67;;;14.43;;
23608;SDS011;11982;50.810;4.442;2023-07-20T06:02:15;24.52;;;13.95;;
23608;SDS011;11982;50.810;4.442;2023-07-20T06:04:41;23.17;;;13.68;;
23608;SDS011;11982;50.810;4.442;2023-07-20T06:07:07;23.88;;;13.52;;
23608;SDS011;11982;50.810;4.442;2023-07-20T06:09:33;20.65;;;11.23;;
23608;SDS011;11982;50.810;4.442;2023-07-20T06:11:59;23.23;;;11.88;;
23608;SDS011;11982;50.810;4.442;2023-07-20T06:14:25;22.15;;;12.10;;
23608;SDS011;11982;50.810;4.442;2023-07-20T06:16:50;18.10;;;12.27;;
23608;SDS011;11982;50.810;4.442;2023-07-20T06:19:16;14.90;;;8.95;;
23608;SDS011;11982;50.810;4.442;2023-07-20T06:21:42;19.08;;;11.00;;
23608;SDS011;11982;50.810;4.442;2023-07-20T06:24:08;17.90;;;9.38;;
23608;SDS011;11982;50.810;4.442;2023-07-20T06:26:34;14.27;;;9.20;;
23608;SDS011;11982;50.810;4.442;2023-07-20T06:29:06;15.82;;;9.18;;
23608;SDS011;11982;50.810;4.442;2023-07-20T06:31:34;15.13;;;8.70;;
23608;SDS011;11982;50.810;4.442;2023-07-20T06:34:00;11.30;;;8.23;;
23608;SDS011;11982;50.810;4.442;2023-07-20T06:36:26;9.43;;;6.40;;
23608;SDS011;11982;50.810;4.442;2023-07-20T06:38:52;13.90;;;7.13;;
23608;SDS011;11982;50.810;4.442;2023-07-20T06:41:18;7.32;;;5.55;;
23608;SDS011;11982;50.810;4.442;2023-07-20T06:43:44;9.77;;;5.55;;
23608;SDS011;11982;50.810;4.442;2023-07-20T06:46:10;11.48;;;6.07;;
23608;SDS011;11982;50.810;4.442;2023-07-20T06:48:36;9.38;;;6.22;;
23608;SDS011;11982;50.810;4.442;2023-07-20T06:51:02;8.50;;;6.22;;
23608;SDS011;11982;50.810;4.442;2023-07-20T06:53:28;10.98;;;5.78;;
23608;SDS011;11982;50.810;4.442;2023-07-20T06:55:54;9.88;;;5.45;;
23608;SDS011;11982;50.810;4.442;2023-07-20T06:58:22;8.23;;;5.18;;
23608;SDS011;11982;50.810;4.442;2023-07-20T07:00:50;13.00;;;6.00;;
23608;SDS011;11982;50.810;4.442;2023-07-20T07:03:16;9.30;;;5.90;;
23608;SDS011;11982;50.810;4.442;2023-07-20T07:05:43;11.00;;;5.43;;
23608;SDS011;11982;50.810;4.442;2023-07-20T07:08:10;9.70;;;5.40;;
23608;SDS011;11982;50.810;4.442;2023-07-20T07:10:36;7.57;;;5.00;;
23608;SDS011;11982;50.810;4.442;2023-07-20T07:13:02;6.85;;;4.50;;
23608;SDS011;11982;50.810;4.442;2023-07-20T07:15:29;5.10;;;3.22;;
23608;SDS011;11982;50.810;4.442;2023-07-20T07:17:55;5.57;;;3.60;;
23608;SDS011;11982;50.810;4.442;2023-07-20T07:20:21;5.65;;;2.70;;
23608;SDS011;11982;50.810;4.442;2023-07-20T07:22:49;6.68;;;3.08;;
23608;SDS011;11982;50.810;4.442;2023-07-20T07:25:17;5.03;;;2.40;;
23608;SDS011;11982;50.810;4.442;2023-07-20T07:27:42;5.00;;;2.97;;
23608;SDS011;11982;50.810;4.442;2023-07-20T07:30:08;4.00;;;2.92;;
23608;SDS011;11982;50.810;4.442;2023-07-20T07:32:34;5.30;;;2.60;;
23608;SDS011;11982;50.810;4.442;2023-07-20T07:35:00;6.03;;;2.25;;
23608;SDS011;11982;50.810;4.442;2023-07-20T07:37:26;6.47;;;3.22;;
23608;SDS011;11982;50.810;4.442;2023-07-20T07:39:52;2.70;;;1.70;;
23608;SDS011;11982;50.810;4.442;2023-07-20T07:42:17;2.25;;;1.80;;
23608;SDS011;11982;50.810;4.442;2023-07-20T07:44:44;3.92;;;1.80;;
23608;SDS011;11982;50.810;4.442;2023-07-20T07:47:09;5.85;;;2.70;;
23608;SDS011;11982;50.810;4.442;2023-07-20T07:49:35;4.20;;;2.42;;
23608;SDS011;11982;50.810;4.442;2023-07-20T07:52:01;3.58;;;2.30;;
23608;SDS011;11982;50.810;4.442;2023-07-20T07:54:27;3.28;;;1.63;;
23608;SDS011;11982;50.810;4.442;2023-07-20T07:56:53;1.33;;;1.17;;
23608;SDS011;11982;50.810;4.442;2023-07-20T07:59:19;3.65;;;1.65;;
23608;SDS011;11982;50.810;4.442;2023-07-20T08:01:45;1.52;;;1.27;;
23608;SDS011;11982;50.810;4.442;2023-07-20T08:04:10;2.22;;;1.23;;
23608;SDS011;11982;50.810;4.442;2023-07-20T08:06:36;1.70;;;1.23;;
23608;SDS011;11982;50.810;4.442;2023-07-20T08:09:02;3.10;;;1.40;;
23608;SDS011;11982;50.810;4.442;2023-07-20T08:11:27;2.22;;;1.50;;
23608;SDS011;11982;50.810;4.442;2023-07-20T08:13:55;7.85;;;4.32;;
23608;SDS011;11982;50.810;4.442;2023-07-20T08:16:21;7.38;;;4.43;;
23608;SDS011;11982;50.810;4.442;2023-07-20T08:18:47;6.85;;;4.32;;
23608;SDS011;11982;50.810;4.442;2023-07-20T08:21:13;3.88;;;2.83;;
23608;SDS011;11982;50.810;4.442;2023-07-20T08:23:38;5.43;;;3.45;;
23608;SDS011;11982;50.810;4.442;2023-07-20T08:26:04;5.20;;;3.45;;
23608;SDS011;11982;50.810;4.442;2023-07-20T08:28:30;5.97;;;2.90;;
23608;SDS011;11982;50.810;4.442;2023-07-20T08:30:56;7.00;;;2.88;;
23608;SDS011;11982;50.810;4.442;2023-07-20T08:33:22;5.18;;;3.00;;
23608;SDS011;11982;50.810;4.442;2023-07-20T08:35:49;4.38;;;2.47;;
23608;SDS011;11982;50.810;4.442;2023-07-20T08:38:14;5.45;;;2.72;;
23608;SDS011;11982;50.810;4.442;2023-07-20T08:40:41;8.65;;;4.35;;
23608;SDS011;11982;50.810;4.442;2023-07-20T08:43:09;9.18;;;4.15;;
23608;SDS011;11982;50.810;4.442;2023-07-20T08:45:36;10.05;;;4.78;;
23608;SDS011;11982;50.810;4.442;2023-07-20T08:48:05;9.20;;;5.40;;
23608;SDS011;11982;50.810;4.442;2023-07-20T08:50:31;7.60;;;4.78;;
23608;SDS011;11982;50.810;4.442;2023-07-20T08:52:58;14.15;;;7.13;;
23608;SDS011;11982;50.810;4.442;2023-07-20T08:55:28;8.07;;;4.90;;
23608;SDS011;11982;50.810;4.442;2023-07-20T08:57:55;5.82;;;3.55;;
23608;SDS011;11982;50.810;4.442;2023-07-20T09:00:22;6.00;;;2.97;;
23608;SDS011;11982;50.810;4.442;2023-07-20T09:02:50;6.70;;;2.78;;
23608;SDS011;11982;50.810;4.442;2023-07-20T09:05:17;4.15;;;2.80;;
23608;SDS011;11982;50.810;4.442;2023-07-20T09:07:44;5.35;;;3.30;;
23608;SDS011;11982;50.810;4.442;2023-07-20T09:10:10;7.45;;;2.60;;
23608;SDS011;11982;50.810;4.442;2023-07-20T09:12:40;5.80;;;2.90;;
23608;SDS011;11982;50.810;4.442;2023-07-20T09:15:07;4.38;;;2.42;;
23608;SDS011;11982;50.810;4.442;2023-07-20T09:17:34;5.28;;;2.22;;
23608;SDS011;11982;50.810;4.442;2023-07-20T09:20:03;9.18;;;2.75;;
23608;SDS011;11982;50.810;4.442;2023-07-20T09:22:36;4.15;;;2.00;;
23608;SDS011;11982;50.810;4.442;2023-07-20T09:25:06;4.13;;;2.13;;
23608;SDS011;11982;50.810;4.442;2023-07-20T09:27:43;4.32;;;2.13;;
23608;SDS011;11982;50.810;4.442;2023-07-20T09:30:16;3.30;;;2.30;;
23608;SDS011;11982;50.810;4.442;2023-07-20T09:32:43;3.00;;;1.95;;
23608;SDS011;11982;50.810;4.442;2023-07-20T09:35:12;3.20;;;1.90;;
23608;SDS011;11982;50.810;4.442;2023-07-20T09:37:51;3.80;;;2.30;;
23608;SDS011;11982;50.810;4.442;2023-07-20T09:40:20;5.50;;;2.38;;
23608;SDS011;11982;50.810;4.442;2023-07-20T09:42:46;3.25;;;2.10;;
23608;SDS011;11982;50.810;4.442;2023-07-20T09:45:13;4.80;;;2.15;;
23608;SDS011;11982;50.810;4.442;2023-07-20T09:47:39;2.03;;;1.85;;
23608;SDS011;11982;50.810;4.442;2023-07-20T09:50:05;5.28;;;2.15;;
23608;SDS011;11982;50.810;4.442;2023-07-20T09:52:38;1.73;;;1.63;;
23608;SDS011;11982;50.810;4.442;2023-07-20T09:55:12;3.95;;;1.40;;
23608;SDS011;11982;50.810;4.442;2023-07-20T09:57:38;3.47;;;1.60;;
23608;SDS011;11982;50.810;4.442;2023-07-20T10:00:04;3.97;;;1.70;;
23608;SDS011;11982;50.810;4.442;2023-07-20T10:02:36;3.00;;;1.60;;
23608;SDS011;11982;50.810;4.442;2023-07-20T10:05:13;4.17;;;1.70;;
23608;SDS011;11982;50.810;4.442;2023-07-20T10:07:43;3.08;;;1.90;;
23608;SDS011;11982;50.810;4.442;2023-07-20T10:10:11;2.88;;;1.70;;
23608;SDS011;11982;50.810;4.442;2023-07-20T10:12:39;2.00;;;1.20;;
23608;SDS011;11982;50.810;4.442;2023-07-20T10:20:39;2.92;;;1.75;;
23608;SDS011;11982;50.810;4.442;2023-07-20T10:23:06;5.05;;;1.60;;
23608;SDS011;11982;50.810;4.442;2023-07-20T10:25:32;3.88;;;1.48;;
23608;SDS011;11982;50.810;4.442;2023-07-20T10:28:03;2.95;;;1.30;;
23608;SDS011;11982;50.810;4.442;2023-07-20T10:30:31;3.72;;;1.35;;
23608;SDS011;11982;50.810;4.442;2023-07-20T10:33:03;2.53;;;1.65;;
23608;SDS011;11982;50.810;4.442;2023-07-20T10:35:30;1.50;;;1.40;;
23608;SDS011;11982;50.810;4.442;2023-07-20T10:38:04;2.88;;;1.50;;
23608;SDS011;11982;50.810;4.442;2023-07-20T10:40:33;2.03;;;1.58;;
23608;SDS011;11982;50.810;4.442;2023-07-20T10:50:31;2.55;;;1.75;;
23608;SDS011;11982;50.810;4.442;2023-07-20T10:53:09;3.67;;;1.83;;
23608;SDS011;11982;50.810;4.442;2023-07-20T10:55:44;2.28;;;1.58;;
23608;SDS011;11982;50.810;4.442;2023-07-20T10:58:12;4.47;;;1.75;;
23608;SDS011;11982;50.810;4.442;2023-07-20T11:03:29;1.42;;;1.33;;
23608;SDS011;11982;50.810;4.442;2023-07-20T11:05:56;3.67;;;1.50;;
23608;SDS011;11982;50.810;4.442;2023-07-20T11:08:39;3.45;;;1.60;;
23608;SDS011;11982;50.810;4.442;2023-07-20T11:11:24;2.10;;;1.85;;
23608;SDS011;11982;50.810;4.442;2023-07-20T11:14:02;3.90;;;1.63;;
23608;SDS011;11982;50.810;4.442;2023-07-20T11:16:42;2.03;;;1.65;;
23608;SDS011;11982;50.810;4.442;2023-07-20T11:19:16;2.75;;;1.60;;
23608;SDS011;11982;50.810;4.442;2023-07-20T11:21:44;3.08;;;1.80;;
23608;SDS011;11982;50.810;4.442;2023-07-20T11:24:11;1.65;;;1.55;;
23608;SDS011;11982;50.810;4.442;2023-07-20T11:26:54;4.00;;;1.88;;
23608;SDS011;11982;50.810;4.442;2023-07-20T11:29:20;7.88;;;2.60;;
23608;SDS011;11982;50.810;4.442;2023-07-20T11:31:48;2.60;;;2.13;;
23608;SDS011;11982;50.810;4.442;2023-07-20T11:36:41;3.85;;;2.58;;
23608;SDS011;11982;50.810;4.442;2023-07-20T11:39:09;3.15;;;2.88;;
23608;SDS011;11982;50.810;4.442;2023-07-20T11:41:35;3.00;;;2.50;;
23608;SDS011;11982;50.810;4.442;2023-07-20T11:44:01;2.88;;;2.67;;
23608;SDS011;11982;50.810;4.442;2023-07-20T11:46:28;3.92;;;2.67;;
23608;SDS011;11982;50.810;4.442;2023-07-20T11:48:57;3.42;;;3.00;;
23608;SDS011;11982;50.810;4.442;2023-07-20T11:51:24;6.68;;;3.20;;
23608;SDS011;11982;50.810;4.442;2023-07-20T11:53:54;4.25;;;2.90;;
23608;SDS011;11982;50.810;4.442;2023-07-20T11:56:20;3.70;;;2.58;;
23608;SDS011;11982;50.810;4.442;2023-07-20T11:58:48;3.08;;;2.75;;
23608;SDS011;11982;50.810;4.442;2023-07-20T12:01:14;3.95;;;2.70;;
23608;SDS011;11982;50.810;4.442;2023-07-20T12:03:41;2.80;;;2.40;;
23608;SDS011;11982;50.810;4.442;2023-07-20T12:06:12;3.75;;;2.60;;
23608;SDS011;11982;50.810;4.442;2023-07-20T12:08:41;3.05;;;2.45;;
23608;SDS011;11982;50.810;4.442;2023-07-20T12:11:08;3.15;;;2.40;;
23608;SDS011;11982;50.810;4.442;2023-07-20T12:13:42;2.60;;;2.40;;
23608;SDS011;11982;50.810;4.442;2023-07-20T12:16:10;3.15;;;2.50;;
23608;SDS011;11982;50.810;4.442;2023-07-20T12:18:40;5.25;;;2.53;;
23608;SDS011;11982;50.810;4.442;2023-07-20T12:21:09;3.22;;;2.17;;
23608;SDS011;11982;50.810;4.442;2023-07-20T12:23:36;2.95;;;2.70;;
23608;SDS011;11982;50.810;4.442;2023-07-20T12:26:06;4.88;;;2.70;;
23608;SDS011;11982;50.810;4.442;2023-07-20T12:28:35;4.75;;;3.03;;
23608;SDS011;11982;50.810;4.442;2023-07-20T12:31:05;4.63;;;2.90;;
23608;SDS011;11982;50.810;4.442;2023-07-20T12:33:32;3.70;;;2.58;;
23608;SDS011;11982;50.810;4.442;2023-07-20T12:35:57;3.80;;;2.65;;
23608;SDS011;11982;50.810;4.442;2023-07-20T12:38:26;6.20;;;2.67;;
23608;SDS011;11982;50.810;4.442;2023-07-20T12:40:52;3.92;;;2.67;;
23608;SDS011;11982;50.810;4.442;2023-07-20T12:43:20;2.40;;;2.20;;
23608;SDS011;11982;50.810;4.442;2023-07-20T12:45:46;2.30;;;2.10;;
23608;SDS011;11982;50.810;4.442;2023-07-20T12:48:12;4.18;;;2.40;;
23608;SDS011;11982;50.810;4.442;2023-07-20T12:50:38;3.05;;;2.20;;
23608;SDS011;11982;50.810;4.442;2023-07-20T12:53:04;3.95;;;2.47;;
23608;SDS011;11982;50.810;4.442;2023-07-20T12:55:29;2.85;;;2.55;;
23608;SDS011;11982;50.810;4.442;2023-07-20T12:57:55;3.47;;;2.15;;
23608;SDS011;11982;50.810;4.442;2023-07-20T13:00:21;3.45;;;2.40;;
23608;SDS011;11982;50.810;4.442;2023-07-20T13:02:50;3.40;;;2.30;;
23608;SDS011;11982;50.810;4.442;2023-07-20T13:05:16;2.90;;;2.38;;
23608;SDS011;11982;50.810;4.442;2023-07-20T13:07:42;2.90;;;2.58;;
23608;SDS011;11982;50.810;4.442;2023-07-20T13:10:08;3.58;;;2.85;;
23608;SDS011;11982;50.810;4.442;2023-07-20T13:12:35;2.80;;;2.60;;
23608;SDS011;11982;50.810;4.442;2023-07-20T13:15:02;4.32;;;3.15;;
23608;SDS011;11982;50.810;4.442;2023-07-20T13:17:31;4.00;;;2.63;;
23608;SDS011;11982;50.810;4.442;2023-07-20T13:19:57;6.70;;;2.72;;
23608;SDS011;11982;50.810;4.442;2023-07-20T13:22:23;2.55;;;2.35;;
23608;SDS011;11982;50.810;4.442;2023-07-20T13:24:48;4.55;;;2.67;;
23608;SDS011;11982;50.810;4.442;2023-07-20T13:27:18;3.72;;;2.92;;
23608;SDS011;11982;50.810;4.442;2023-07-20T13:29:45;7.82;;;2.85;;
23608;SDS011;11982;50.810;4.442;2023-07-20T13:32:13;5.50;;;2.80;;
23608;SDS011;11982;50.810;4.442;2023-07-20T13:34:44;4.05;;;2.75;;
23608;SDS011;11982;50.810;4.442;2023-07-20T13:37:10;3.80;;;2.70;;
23608;SDS011;11982;50.810;4.442;2023-07-20T13:39:37;5.78;;;2.70;;
23608;SDS011;11982;50.810;4.442;2023-07-20T13:42:03;8.70;;;3.58;;
23608;SDS011;11982;50.810;4.442;2023-07-20T13:44:33;3.15;;;2.92;;
23608;SDS011;11982;50.810;4.442;2023-07-20T13:46:59;4.40;;;2.75;;
23608;SDS011;11982;50.810;4.442;2023-07-20T13:49:26;5.13;;;2.97;;
23608;SDS011;11982;50.810;4.442;2023-07-20T13:51:52;4.88;;;3.05;;
23608;SDS011;11982;50.810;4.442;2023-07-20T13:54:18;5.50;;;2.90;;
23608;SDS011;11982;50.810;4.442;2023-07-20T13:56:44;5.65;;;2.85;;
23608;SDS011;11982;50.810;4.442;2023-07-20T13:59:09;5.10;;;2.60;;
23608;SDS011;11982;50.810;4.442;2023-07-20T14:01:35;5.78;;;2.88;;
23608;SDS011;11982;50.810;4.442;2023-07-20T14:04:01;5.55;;;2.83;;
23608;SDS011;11982;50.810;4.442;2023-07-20T14:06:31;4.38;;;2.67;;
23608;SDS011;11982;50.810;4.442;2023-07-20T14:08:57;3.97;;;2.55;;
23608;SDS011;11982;50.810;4.442;2023-07-20T14:11:24;3.38;;;2.40;;
23608;SDS011;11982;50.810;4.442;2023-07-20T14:13:50;3.47;;;2.40;;
23608;SDS011;11982;50.810;4.442;2023-07-20T14:16:18;4.60;;;2.40;;
23608;SDS011;11982;50.810;4.442;2023-07-20T14:18:43;9.05;;;2.17;;
23608;SDS011;11982;50.810;4.442;2023-07-20T14:21:12;5.05;;;2.53;;
23608;SDS011;11982;50.810;4.442;2023-07-20T14:23:38;4.90;;;2.20;;
23608;SDS011;11982;50.810;4.442;2023-07-20T14:26:03;2.22;;;1.75;;
23608;SDS011;11982;50.810;4.442;2023-07-20T14:28:34;3.28;;;1.88;;
23608;SDS011;11982;50.810;4.442;2023-07-20T14:31:00;7.00;;;1.98;;
23608;SDS011;11982;50.810;4.442;2023-07-20T14:33:25;3.28;;;1.95;;
23608;SDS011;11982;50.810;4.442;2023-07-20T14:35:51;3.35;;;2.08;;
23608;SDS011;11982;50.810;4.442;2023-07-20T14:38:17;7.63;;;2.30;;
23608;SDS011;11982;50.810;4.442;2023-07-20T14:40:42;3.33;;;1.92;;
23608;SDS011;11982;50.810;4.442;2023-07-20T14:43:08;6.60;;;2.00;;
23608;SDS011;11982;50.810;4.442;2023-07-20T14:45:34;3.22;;;1.90;;
23608;SDS011;11982;50.810;4.442;2023-07-20T14:48:03;2.97;;;2.10;;
23608;SDS011;11982;50.810;4.442;2023-07-20T14:50:28;6.80;;;2.10;;
23608;SDS011;11982;50.810;4.442;2023-07-20T14:52:54;2.50;;;1.60;;
23608;SDS011;11982;50.810;4.442;2023-07-20T14:55:20;3.40;;;1.77;;
23608;SDS011;11982;50.810;4.442;2023-07-20T14:57:47;2.42;;;1.83;;
23608;SDS011;11982;50.810;4.442;2023-07-20T15:00:13;2.78;;;1.65;;
23608;SDS011;11982;50.810;4.442;2023-07-20T15:02:40;1.98;;;1.52;;
23608;SDS011;11982;50.810;4.442;2023-07-20T15:05:09;3.22;;;1.73;;
23608;SDS011;11982;50.810;4.442;2023-07-20T15:07:35;3.50;;;2.13;;